Impacts METAR Board
IDs:

KLAS - Las Vegas/McCarran I, NV, US

Updated at: 0700 UTC 21 Oct 2018
Potential Impact None Slight Moderate High
Time 20/19Z 20/20Z 20/21Z 20/22Z 20/23Z 21/00Z 21/01Z 21/02Z 21/03Z 21/04Z 21/05Z 21/06Z 21/07Z
Temp77 79 80 80 81 81 79 77 76 74 73 72 70
Dewpt33 34 36 36 37 39 39 40 39 39 39 39 40
Altim30.11 30.08 30.05 30.03 30.01 29.99 29.98 29.99 30.00 29.99 30.00 30.00 29.99
VIS10 10 10 10 10 10 10 10 10 10 10 10 10
CIG-- -- -- 160 -- -- -- -- -- -- 110 95 120
CoverSCTSCTSCTBKNSCTSCTSCTSCTSCTSCTBKNBKNBKN
FltCatVFRVFRVFRVFRVFRVFRVFRVFRVFRVFRVFRVFRVFR
WX--------------------------
WDir3040200203503302902702602001900
WSpd9 11 9 0 6 5 4 5 6 5 3 4 0
WGst-- -- -- -- -- -- -- -- -- -- -- -- --
Raw hourly METARs
KLAS 201856Z 03009KT 10SM FEW130 SCT180 25/01 A3011 RMK AO2 SLP178 T02500006
KLAS 201956Z 04011KT 10SM FEW120 SCT180 26/01 A3008 RMK AO2 SLP166 T02610011
KLAS 202056Z 02009KT 10SM FEW120 SCT160 27/02 A3005 RMK AO2 SLP157 T02670022 58025
KLAS 202156Z 00000KT 10SM SCT120 BKN160 27/02 A3003 RMK AO2 SLP151 T02670022
KLAS 202256Z 02006KT 10SM SCT085 SCT120 27/03 A3001 RMK AO2 SLP144 ACC ALQDS T02720028
KLAS 202356Z 35005KT 10SM FEW085 SCT120 SCT250 27/04 A2999 RMK AO2 SLP139 ACC ALQDS T02720039 10278 20239 58017
KLAS 210056Z 33004KT 10SM FEW085 FEW120 SCT250 26/04 A2998 RMK AO2 SLP135 T02610039
KLAS 210156Z 29005KT 10SM FEW085 FEW120 SCT250 25/04 A2999 RMK AO2 SLP138 T02500044
KLAS 210256Z 27006KT 10SM FEW090 SCT120 SCT250 24/04 A3000 RMK AO2 SLP140 T02440039 53000
KLAS 210356Z 26005KT 10SM FEW090 SCT120 SCT250 23/04 A2999 RMK AO2 SLP139 T02330039
KLAS 210456Z 20003KT 10SM SCT090 BKN110 23/04 A3000 RMK AO2 SLP139 T02280039
KLAS 210556Z 19004KT 10SM BKN095 BKN130 22/04 A3000 RMK AO2 SLP140 T02220039 10272 20217 53001
KLAS 210656Z 00000KT 10SM SCT090 BKN120 21/04 A2999 RMK AO2 SLP138 T02110044



Page loaded:  07:38 UTC  |   12:38 AM Pacific  |   01:38 AM Mountain  |   02:38 AM Central  |   03:38 AM Eastern

 

ADVISORIES

FORECASTS

FORECASTS

OBSERVATIONS

USER TOOLS

ABOUT US